Hovedside
METAR-TAF:

METAR-TAF

Lufthavner :

Houari Boumedienne lufthavn

Alger, Algerie

breddegrad: 36-43N, lengdegrad: 003-15E, høyde over havet: 25 m

Gjeldene værobservasjon

Denne rapporten ble laget for 21 minutter siden, klokken 17:30 UTC
Vind 2 kt fra skiftende retning
Temperatur 14°C
Luftfuktighet 77%
Trykk 1020 hPa
Sikt 10 km eller mer
Få skyer i en høyde av 2600 ft

METAR: DAAG 121730Z VRB02KT 9999 FEW026 14/10 Q1020

Tid: 18:51 (17:51 UTC)

Varsel

Denne rapporten ble laget for 51 minutter siden, klokken 17:00 UTC
Varsel gyldig fra 12. klokken 18 UTC til 13. klokken 18 UTC
Vind 2 kt fra skiftende retning
Sikt 10 km eller mer
Få skyer i en høyde av 2600 ft
Sannsynlighet 30% :
Midlertidig
fra 12. klokken 22 UTC til 13. klokken 06 UTC
Sikt: 3000 m
Brutte skyer i en høyde av 1500 ft
dis
Blir
fra 13. klokken 08 UTC til 13. klokken 11 UTC
Vind 10 kt fra Vest-sørvest

TAF: DAAG 121700Z 1218/1318 VRB02KT 9999 FEW026 PROB30 TEMPO 1222/1306 3000 BR BKN015 BECMG 1308/1311 24010KT

Værobservasjoner og værvarsel for over 4000 flyplasser (METAR- og TAF-rapporter).

Tilgjengelige stasjoner er representert av de røde og gule prikkene på kartet.

Hold musepekeren over prikken for å se navnet på stasjonen.

Klikk så for å se værobservasjoner og -varsler.

For å forandre kartet kan du klikke på den grønne knappen med svart kryss for å zoome inn, på den grønne knappen med strek for å zoome ut, eller på de grønne pilene for å se tilstøtende kart.


METAR-TAF: